Time;durP1;ratioP1;P1;durP2;ratioP2;P2;SDS_P1;SDS_P2;PMS_P1;PMS_P2;Temp;Humidity;BMP_temperature;BMP_pressure;BME280_temperature;BME280_humidity;BME280_pressure;Samples;Min_cycle;Max_cycle;Signal;HPM_P1;HPM_P2
2022/02/19 00:01:13;;;;;;;10.63;1.45;;;;;;;2.42;78.00;99987.28;4946762;28;20517;-72
2022/02/19 00:03:39;;;;;;;5.05;0.95;;;;;;;2.43;77.83;99997.06;4952019;28;21158;-72
2022/02/19 00:06:04;;;;;;;5.97;1.35;;;;;;;2.45;78.28;100000.34;4954608;28;20031;-72
2022/02/19 00:08:30;;;;;;;8.00;1.20;;;;;;;2.46;77.95;100012.78;4943423;28;20136;-73
2022/02/19 00:10:55;;;;;;;8.73;1.38;;;;;;;2.47;78.47;100010.91;4943535;28;20035;-73
2022/02/19 00:13:22;;;;;;;8.65;1.48;;;;;;;2.49;78.03;100020.44;4909244;28;20039;-73
2022/02/19 00:15:47;;;;;;;9.52;1.65;;;;;;;2.50;78.33;100030.19;4934174;28;20023;-72
2022/02/19 00:18:13;;;;;;;3.78;1.02;;;;;;;2.48;78.05;100031.47;4949572;28;20033;-71
2022/02/19 00:20:38;;;;;;;4.43;0.63;;;;;;;2.47;78.05;100041.44;4912045;29;20042;-71
2022/02/19 00:23:04;;;;;;;11.70;1.15;;;;;;;2.46;78.53;100038.97;4949097;28;20090;-71
2022/02/19 00:25:29;;;;;;;6.63;1.88;;;;;;;2.47;78.68;100046.84;4921237;28;20031;-70
2022/02/19 00:27:55;;;;;;;12.65;1.50;;;;;;;2.44;78.53;100052.69;4943154;28;20472;-71
2022/02/19 00:30:20;;;;;;;2.03;0.82;;;;;;;2.44;78.89;100058.91;4941313;28;20034;-71
2022/02/19 00:32:46;;;;;;;11.25;1.42;;;;;;;2.41;78.39;100047.72;4939887;28;20537;-71
2022/02/19 00:35:11;;;;;;;1.92;0.88;;;;;;;2.42;78.75;100054.78;4946346;28;20441;-72
2022/02/19 00:37:37;;;;;;;3.65;0.73;;;;;;;2.48;79.03;100056.56;4944157;28;20109;-71
2022/02/19 00:40:04;;;;;;;13.90;1.00;;;;;;;2.54;78.96;100062.97;4942306;28;20027;-72
2022/02/19 00:42:29;;;;;;;1.85;0.52;;;;;;;2.55;78.79;100064.63;4948862;28;20039;-71
2022/02/19 00:44:55;;;;;;;10.05;0.93;;;;;;;2.57;79.05;100066.06;4929382;28;20035;-70
2022/02/19 00:47:20;;;;;;;13.50;1.25;;;;;;;2.54;78.69;100069.22;4948587;28;20047;-69
2022/02/19 00:49:46;;;;;;;9.57;0.90;;;;;;;2.55;78.95;100070.84;4954250;28;20101;-70
2022/02/19 00:52:11;;;;;;;14.80;1.50;;;;;;;2.55;78.78;100070.03;4945499;28;20019;-69
2022/02/19 00:54:37;;;;;;;4.05;1.15;;;;;;;2.54;79.02;100068.34;4941835;28;20355;-68
2022/02/19 00:57:03;;;;;;;16.25;1.23;;;;;;;2.54;79.03;100074.59;4925638;28;20028;-70
2022/02/19 00:59:28;;;;;;;3.67;0.65;;;;;;;2.51;78.55;100079.59;4942591;28;20541;-70
2022/02/19 01:01:53;;;;;;;5.90;0.73;;;;;;;2.47;78.80;100073.84;4944830;28;20033;-70
2022/02/19 01:04:19;;;;;;;6.93;0.80;;;;;;;2.49;78.52;100076.31;4948832;28;20031;-68
2022/02/19 01:06:44;;;;;;;10.75;2.85;;;;;;;2.52;78.46;100081.25;4923849;29;20105;-69
2022/02/19 01:09:10;;;;;;;5.47;0.73;;;;;;;2.48;78.45;100078.16;4912649;29;20671;-71
2022/02/19 01:11:39;;;;;;;11.77;1.15;;;;;;;2.49;78.47;100077.13;4941095;28;20062;-69
2022/02/19 01:14:08;;;;;;;4.68;1.23;;;;;;;2.50;78.30;100083.34;4951586;28;20062;-70
2022/02/19 01:16:34;;;;;;;10.20;0.90;;;;;;;2.56;78.55;100077.91;4953430;28;20034;-70
2022/02/19 01:18:59;;;;;;;3.53;0.75;;;;;;;2.55;78.07;100076.22;4937262;28;20102;-69
2022/02/19 01:21:25;;;;;;;8.88;0.63;;;;;;;2.58;78.35;100075.78;4948187;28;20035;-70
2022/02/19 01:23:51;;;;;;;3.58;1.15;;;;;;;2.61;78.36;100080.78;4946881;28;20034;-71
2022/02/19 01:26:16;;;;;;;10.52;1.23;;;;;;;2.60;78.49;100079.09;4949796;28;20023;-72
2022/02/19 01:28:42;;;;;;;2.38;0.55;;;;;;;2.62;78.81;100079.69;4940221;28;20110;-71
2022/02/19 01:31:07;;;;;;;8.93;1.13;;;;;;;2.65;79.23;100083.03;4944525;28;20036;-72
2022/02/19 01:33:33;;;;;;;12.43;1.55;;;;;;;2.66;78.39;100081.94;4949270;28;20111;-72
2022/02/19 01:35:59;;;;;;;8.45;1.60;;;;;;;2.68;78.76;100085.28;4917837;29;20035;-71
2022/02/19 01:38:24;;;;;;;6.03;0.80;;;;;;;2.70;78.78;100115.56;4931242;28;20062;-73
2022/02/19 01:40:51;;;;;;;5.35;0.73;;;;;;;2.78;79.05;100131.50;4949766;28;20089;-71
2022/02/19 01:43:16;;;;;;;3.08;1.23;;;;;;;2.80;78.51;100118.59;4942752;28;20035;-72
2022/02/19 01:45:45;;;;;;;5.95;0.70;;;;;;;2.87;78.57;100105.03;4947171;28;20039;-71
2022/02/19 01:48:11;;;;;;;5.30;1.25;;;;;;;2.86;78.88;100109.63;4944851;28;20131;-70
2022/02/19 01:50:37;;;;;;;6.43;1.27;;;;;;;2.78;78.67;100099.09;4940838;28;20113;-71
2022/02/19 01:53:03;;;;;;;6.00;2.70;;;;;;;2.77;78.83;100106.38;4947789;28;20039;-72
2022/02/19 01:55:29;;;;;;;5.00;0.88;;;;;;;2.79;78.78;100114.25;4935656;28;20034;-69
2022/02/19 01:57:55;;;;;;;13.20;1.55;;;;;;;2.77;78.88;100110.94;4945703;28;20422;-71
2022/02/19 02:00:21;;;;;;;7.80;1.67;;;;;;;2.74;78.61;100105.97;4939814;28;20040;-70
2022/02/19 02:02:47;;;;;;;5.85;1.13;;;;;;;2.68;78.86;100102.28;4944713;28;20031;-71
2022/02/19 02:05:12;;;;;;;11.85;1.05;;;;;;;2.62;78.73;100114.78;4945652;28;21661;-71
2022/02/19 02:07:38;;;;;;;7.05;0.95;;;;;;;2.58;78.67;100113.59;4944317;28;20035;-70
2022/02/19 02:10:04;;;;;;;8.18;1.80;;;;;;;2.63;78.82;100107.53;4949481;28;20043;-71
2022/02/19 02:12:30;;;;;;;10.63;1.42;;;;;;;2.64;78.35;100106.47;4943483;28;20039;-72
2022/02/19 02:14:55;;;;;;;4.68;0.63;;;;;;;2.71;78.37;100106.44;4950997;28;20059;-71
2022/02/19 02:17:21;;;;;;;11.70;1.83;;;;;;;2.77;78.49;100108.22;4945670;28;20028;-71
2022/02/19 02:19:46;;;;;;;5.10;0.80;;;;;;;2.83;78.71;100107.34;4947649;28;20425;-71
2022/02/19 02:22:14;;;;;;;1.40;0.40;;;;;;;2.81;77.79;100106.75;4949443;28;20029;-71
2022/02/19 02:24:40;;;;;;;3.75;0.80;;;;;;;2.78;77.81;100108.00;4946313;28;20466;-72
2022/02/19 02:27:08;;;;;;;4.90;0.57;;;;;;;2.71;78.13;100109.13;4919829;29;20049;-70
2022/02/19 02:29:45;;;;;;;6.57;0.90;;;;;;;2.62;77.77;100109.41;4937599;28;20037;-70
2022/02/19 02:32:11;;;;;;;5.28;1.55;;;;;;;2.57;78.63;100108.41;4950786;28;20035;-70
2022/02/19 02:34:47;;;;;;;5.05;1.08;;;;;;;2.58;78.34;100121.69;4953417;28;20038;-72
2022/02/19 02:37:12;;;;;;;12.23;1.10;;;;;;;2.55;78.33;100114.03;4935057;29;20035;-70
2022/02/19 02:39:38;;;;;;;12.27;1.10;;;;;;;2.55;78.39;100124.81;4917637;29;20035;-71
2022/02/19 02:42:04;;;;;;;3.22;0.57;;;;;;;2.52;78.38;100129.84;4946920;28;20038;-69
2022/02/19 02:44:29;;;;;;;6.00;0.65;;;;;;;2.50;78.11;100121.97;4933982;28;20503;-70
2022/02/19 02:46:55;;;;;;;6.68;0.63;;;;;;;2.46;78.66;100103.75;4956848;28;20401;-69
2022/02/19 02:49:21;;;;;;;1.95;0.47;;;;;;;2.44;78.68;100106.66;4955626;28;20035;-71
2022/02/19 02:51:46;;;;;;;4.18;1.02;;;;;;;2.37;78.11;100114.00;4945870;28;20042;-71
2022/02/19 02:54:11;;;;;;;5.43;0.82;;;;;;;2.35;78.67;100110.66;4931725;29;20035;-71
2022/02/19 02:56:37;;;;;;;8.55;0.70;;;;;;;2.30;78.69;100105.13;4952094;28;20051;-71
2022/02/19 02:59:02;;;;;;;3.30;0.52;;;;;;;2.32;78.34;100103.00;4932826;28;20405;-70
2022/02/19 03:01:28;;;;;;;11.60;0.63;;;;;;;2.24;78.83;100107.63;4947389;28;20023;-69
2022/02/19 03:03:53;;;;;;;1.10;0.60;;;;;;;2.30;79.03;100110.50;4947023;28;20458;-72
2022/02/19 03:06:19;;;;;;;4.65;0.70;;;;;;;2.32;79.04;100109.22;4919052;28;20042;-72
2022/02/19 03:08:44;;;;;;;6.57;0.80;;;;;;;2.30;79.00;100115.91;4929174;28;20027;-71
2022/02/19 03:11:10;;;;;;;2.42;0.82;;;;;;;2.26;78.79;100131.69;4946325;28;20043;-70
2022/02/19 03:13:35;;;;;;;4.28;0.90;;;;;;;2.27;78.89;100128.78;4933473;29;20093;-69
2022/02/19 03:16:00;;;;;;;3.72;0.63;;;;;;;2.32;79.01;100135.41;4948062;28;20126;-70
2022/02/19 03:18:26;;;;;;;10.40;1.00;;;;;;;2.30;78.78;100141.00;4948106;28;20027;-72
2022/02/19 03:20:51;;;;;;;8.70;0.60;;;;;;;2.33;78.81;100142.44;4928684;29;20051;-72
2022/02/19 03:23:17;;;;;;;2.22;0.60;;;;;;;2.30;78.90;100142.91;4953061;28;20446;-71
2022/02/19 03:25:42;;;;;;;6.18;0.88;;;;;;;2.28;78.80;100151.22;4949970;28;20051;-71
2022/02/19 03:28:08;;;;;;;7.07;0.50;;;;;;;2.27;79.07;100144.97;4949816;28;20046;-72
2022/02/19 03:30:34;;;;;;;1.60;0.40;;;;;;;2.30;79.12;100154.50;4945695;28;20094;-71
2022/02/19 03:32:59;;;;;;;16.00;2.15;;;;;;;2.31;78.75;100155.31;4949619;28;20024;-71
2022/02/19 03:35:25;;;;;;;2.97;0.70;;;;;;;2.29;79.02;100157.41;4950500;28;20032;-71
2022/02/19 03:37:50;;;;;;;6.25;0.85;;;;;;;2.24;78.84;100164.28;4939027;28;20035;-71
2022/02/19 03:40:16;;;;;;;10.75;0.75;;;;;;;2.26;79.19;100162.22;4950475;28;20432;-71
2022/02/19 03:42:42;;;;;;;10.18;1.33;;;;;;;2.22;79.01;100158.31;4950429;28;20598;-69
2022/02/19 03:45:10;;;;;;;6.18;0.52;;;;;;;2.26;79.15;100159.53;4935270;29;20028;-70
2022/02/19 03:47:36;;;;;;;10.13;1.40;;;;;;;2.32;78.95;100163.19;4950193;28;20051;-69
2022/02/19 03:50:09;;;;;;;8.02;1.65;;;;;;;2.33;78.94;100169.44;4948257;28;20118;-72
2022/02/19 03:52:35;;;;;;;7.70;0.75;;;;;;;2.33;78.79;100153.25;4948938;28;20035;-71
2022/02/19 03:55:01;;;;;;;5.07;0.88;;;;;;;2.32;79.01;100151.59;4952763;28;20030;-71
2022/02/19 03:57:26;;;;;;;8.13;0.73;;;;;;;2.37;78.77;100159.88;4946341;28;20031;-71
2022/02/19 03:59:53;;;;;;;9.57;0.80;;;;;;;2.33;78.67;100169.44;4951009;28;20193;-70
2022/02/19 04:02:18;;;;;;;6.55;0.68;;;;;;;2.33;78.39;100158.66;4950527;28;20078;-70
2022/02/19 04:04:44;;;;;;;8.35;0.55;;;;;;;2.35;78.62;100153.84;4950890;28;20027;-70
2022/02/19 04:07:09;;;;;;;12.52;0.95;;;;;;;2.35;78.52;100151.16;4934159;28;20476;-69
2022/02/19 04:09:35;;;;;;;14.13;1.52;;;;;;;2.34;79.12;100136.03;4951224;28;20058;-69
2022/02/19 04:12:01;;;;;;;4.03;0.65;;;;;;;2.35;78.52;100151.16;4949250;28;20031;-70
2022/02/19 04:14:27;;;;;;;11.98;1.05;;;;;;;2.30;78.58;100145.59;4946328;28;20508;-69
2022/02/19 04:16:52;;;;;;;5.85;0.65;;;;;;;2.31;79.43;100144.53;4930348;28;20106;-69
2022/02/19 04:19:18;;;;;;;5.60;1.00;;;;;;;2.30;78.63;100137.50;4947414;28;20073;-71
2022/02/19 04:21:43;;;;;;;4.75;0.70;;;;;;;2.27;79.20;100144.97;4948365;28;20389;-69
2022/02/19 04:24:09;;;;;;;10.90;1.65;;;;;;;2.26;78.81;100146.03;4949023;28;20063;-70
2022/02/19 04:26:34;;;;;;;5.45;1.05;;;;;;;2.30;78.79;100159.09;4949270;28;20082;-71
2022/02/19 04:28:59;;;;;;;6.45;0.80;;;;;;;2.25;78.87;100157.88;4947719;28;20071;-71
2022/02/19 04:31:25;;;;;;;6.88;0.60;;;;;;;2.20;79.09;100159.56;4950149;28;20019;-73
2022/02/19 04:33:51;;;;;;;4.10;0.52;;;;;;;2.22;78.87;100163.69;4950152;28;21651;-73
2022/02/19 04:36:16;;;;;;;6.63;1.50;;;;;;;2.20;78.86;100170.34;4934092;29;20026;-74
2022/02/19 04:38:42;;;;;;;5.43;0.75;;;;;;;2.19;79.02;100164.13;4944600;28;20023;-73
2022/02/19 04:41:07;;;;;;;2.67;0.77;;;;;;;2.18;79.08;100167.06;4947518;28;20051;-75
2022/02/19 04:43:33;;;;;;;8.98;0.95;;;;;;;2.16;78.93;100164.56;4955068;28;20023;-71
2022/02/19 04:45:58;;;;;;;3.88;0.40;;;;;;;2.15;78.95;100173.69;4931816;28;20582;-69
2022/02/19 04:48:24;;;;;;;2.60;1.13;;;;;;;2.15;79.23;100179.09;4952785;28;20097;-70
2022/02/19 04:50:49;;;;;;;10.73;1.17;;;;;;;2.13;78.65;100180.34;4951095;28;20035;-70
2022/02/19 04:53:15;;;;;;;7.47;1.65;;;;;;;2.11;78.99;100182.44;4943413;28;20032;-70
2022/02/19 04:55:40;;;;;;;3.28;0.43;;;;;;;2.10;79.31;100189.69;4949236;28;20073;-71
2022/02/19 04:58:06;;;;;;;5.50;1.38;;;;;;;2.09;79.40;100185.38;4946956;28;20048;-69
2022/02/19 05:00:31;;;;;;;3.97;0.63;;;;;;;2.06;79.14;100191.19;4947923;28;20027;-70
2022/02/19 05:02:57;;;;;;;11.45;0.73;;;;;;;2.00;78.78;100192.88;4949126;28;20019;-69
2022/02/19 05:05:22;;;;;;;5.03;1.08;;;;;;;1.96;78.80;100180.00;4928349;29;20473;-70
2022/02/19 05:07:48;;;;;;;4.03;0.65;;;;;;;1.96;79.02;100180.84;4945644;28;20039;-69
2022/02/19 05:10:13;;;;;;;5.25;0.57;;;;;;;1.92;78.89;100180.44;4931486;29;20042;-69
2022/02/19 05:12:41;;;;;;;7.95;1.10;;;;;;;1.97;79.51;100187.06;4948359;28;20051;-71
2022/02/19 05:15:15;;;;;;;7.57;1.20;;;;;;;1.97;79.25;100192.47;4943040;28;20034;-71
2022/02/19 05:17:48;;;;;;;8.55;0.85;;;;;;;1.94;79.29;100192.91;4932546;28;20031;-73
2022/02/19 05:20:23;;;;;;;7.78;0.82;;;;;;;1.91;79.27;100184.19;4943127;28;20019;-72
2022/02/19 05:22:50;;;;;;;2.78;0.52;;;;;;;1.95;79.73;100186.47;4945857;28;20413;-72
2022/02/19 05:25:17;;;;;;;7.53;0.80;;;;;;;1.96;79.68;100185.41;4947181;28;20031;-73
2022/02/19 05:27:43;;;;;;;5.35;0.43;;;;;;;1.95;79.17;100184.59;4950493;28;20033;-74
2022/02/19 05:30:09;;;;;;;3.80;0.70;;;;;;;1.91;79.74;100181.50;4910453;28;20035;-73
2022/02/19 05:32:35;;;;;;;2.47;0.68;;;;;;;1.89;79.59;100170.09;4944418;28;20036;-73
2022/02/19 05:35:00;;;;;;;4.55;0.70;;;;;;;1.87;79.25;100171.34;4946611;28;20152;-74
2022/02/19 05:37:29;;;;;;;11.00;1.42;;;;;;;1.87;79.56;100171.34;4949301;28;20437;-73
2022/02/19 05:39:54;;;;;;;4.32;0.75;;;;;;;1.88;79.87;100168.47;4933901;28;20086;-71
2022/02/19 05:42:20;;;;;;;9.32;1.55;;;;;;;1.90;79.91;100176.34;4943312;28;20486;-73
2022/02/19 05:44:45;;;;;;;3.38;0.57;;;;;;;1.89;79.62;100159.31;4946976;28;20054;-72
2022/02/19 05:47:11;;;;;;;10.68;1.45;;;;;;;1.88;79.77;100152.28;4942979;28;20525;-74
2022/02/19 05:49:36;;;;;;;5.20;0.77;;;;;;;1.96;79.57;100174.63;4951710;28;20450;-73
2022/02/19 05:52:02;;;;;;;6.15;1.15;;;;;;;2.00;80.19;100175.84;4950518;28;20431;-75
2022/02/19 05:54:27;;;;;;;5.97;0.77;;;;;;;1.99;79.29;100168.81;4948619;28;20041;-74
2022/02/19 05:56:53;;;;;;;4.60;0.55;;;;;;;1.97;79.71;100160.09;4946486;28;20405;-72
2022/02/19 05:59:18;;;;;;;1.65;0.55;;;;;;;1.98;79.42;100156.38;4946178;28;20111;-73
2022/02/19 06:01:43;;;;;;;2.17;0.70;;;;;;;1.98;79.41;100145.56;4944346;28;20110;-72
2022/02/19 06:04:09;;;;;;;3.78;0.65;;;;;;;1.92;79.16;100148.09;4945634;28;20038;-73
2022/02/19 06:06:34;;;;;;;3.05;1.02;;;;;;;1.92;79.40;100147.28;4942354;28;20058;-74
2022/02/19 06:09:00;;;;;;;5.75;0.68;;;;;;;1.97;79.67;100149.31;4943351;28;20454;-73
2022/02/19 06:11:25;;;;;;;6.78;0.93;;;;;;;1.97;79.36;100139.38;4945879;28;20066;-72
2022/02/19 06:13:51;;;;;;;2.65;0.50;;;;;;;1.98;79.33;100124.81;4945536;28;20019;-71
2022/02/19 06:16:16;;;;;;;9.18;0.63;;;;;;;2.03;79.22;100133.09;4943363;28;20540;-71
2022/02/19 06:18:42;;;;;;;4.10;0.80;;;;;;;2.04;79.38;100123.13;4926862;29;20031;-70
2022/02/19 06:21:07;;;;;;;9.15;1.58;;;;;;;2.01;78.76;100123.56;4943019;28;20038;-72
2022/02/19 06:23:32;;;;;;;4.40;1.30;;;;;;;2.04;79.26;100123.13;4933082;28;20689;-74
2022/02/19 06:25:58;;;;;;;4.25;0.80;;;;;;;2.07;79.23;100126.22;4948419;28;20039;-75
2022/02/19 06:28:24;;;;;;;2.13;0.57;;;;;;;2.09;79.43;100132.22;4941993;28;20023;-74
2022/02/19 06:30:49;;;;;;;2.38;0.80;;;;;;;2.11;79.22;100129.31;4941159;28;20050;-71
2022/02/19 06:33:15;;;;;;;3.70;0.68;;;;;;;2.10;79.04;100124.94;4947565;28;20037;-74
2022/02/19 06:36:04;;;;;;;;;;;;;;;;;;;;;
2022/02/19 06:38:39;;;;;;;2.35;0.43;;;;;;;2.03;78.97;100124.16;4956683;28;20027;-75
2022/02/19 06:41:13;;;;;;;4.88;1.08;;;;;;;2.05;79.18;100130.19;4934850;28;20046;-77
2022/02/19 06:43:39;;;;;;;4.40;1.15;;;;;;;2.14;79.18;100145.06;4952125;28;20118;-77
2022/02/19 06:46:19;;;;;;;5.03;0.47;;;;;;;2.11;79.17;100137.41;4937305;28;20484;-76
2022/02/19 06:48:47;;;;;;;5.53;0.60;;;;;;;2.13;79.19;100138.00;4940877;28;20411;-75
2022/02/19 06:51:25;;;;;;;;;;;;;;;;;;;;;
2022/02/19 06:54:06;;;;;;;;;;;;;;;;;;;;;
2022/02/19 06:56:42;;;;;;;1.42;0.75;;;;;;;2.05;79.17;100140.97;4955169;28;20106;-77
2022/02/19 07:02:22;;;;;;;3.38;0.73;;;;;;;2.05;78.81;100157.97;4956412;28;20039;-76
2022/02/19 07:05:35;;;;;;;;;;;;;;;;;;;;;
2022/02/19 07:08:12;;;;;;;7.72;0.57;;;;;;;2.09;79.56;100159.19;4945378;28;20123;-76
2022/02/19 07:11:06;;;;;;;1.83;0.40;;;;;;;2.06;79.88;100148.84;4955800;28;20106;-76
2022/02/19 07:13:31;;;;;;;6.30;1.17;;;;;;;1.95;79.55;100146.00;4940777;28;20406;-74
2022/02/19 07:16:03;;;;;;;8.55;0.80;;;;;;;2.01;79.76;100134.34;4942598;28;20078;-73
2022/02/19 07:18:29;;;;;;;4.57;0.50;;;;;;;2.01;80.20;100135.16;4953672;28;20054;-71
2022/02/19 07:21:07;;;;;;;9.93;1.27;;;;;;;2.12;79.63;100151.72;4945076;28;20027;-71
2022/02/19 07:23:36;;;;;;;2.75;0.57;;;;;;;2.05;80.04;100125.59;4952984;28;20036;-71
2022/02/19 07:26:03;;;;;;;4.25;0.85;;;;;;;2.07;79.90;100122.69;4928567;28;20031;-70
2022/02/19 07:28:33;;;;;;;3.90;0.47;;;;;;;2.10;79.99;100116.84;4937173;28;20458;-70
2022/02/19 07:31:02;;;;;;;3.22;0.35;;;;;;;2.19;79.95;100120.97;4953767;28;20032;-71
2022/02/19 07:33:30;;;;;;;4.40;0.40;;;;;;;2.23;80.17;100114.09;4957491;28;20035;-71
2022/02/19 07:35:58;;;;;;;11.48;0.40;;;;;;;2.17;79.74;100085.25;4936309;28;20030;-71
2022/02/19 07:38:24;;;;;;;3.70;1.17;;;;;;;2.26;80.12;100110.97;4940883;28;20162;-69
2022/02/19 07:40:58;;;;;;;2.33;0.55;;;;;;;2.30;79.63;100113.22;4936989;28;20094;-71
2022/02/19 07:43:26;;;;;;;0.80;0.23;;;;;;;2.31;80.11;100114.84;4949161;28;20030;-70
2022/02/19 07:45:54;;;;;;;2.42;0.77;;;;;;;2.36;80.76;100123.13;4936724;28;20289;-70
2022/02/19 07:48:25;;;;;;;2.83;0.73;;;;;;;2.41;80.77;100125.97;4944708;28;20082;-70
2022/02/19 07:59:30;;;;;;;2.47;0.50;;;;;;;3.00;80.27;100125.69;4939994;28;20042;-70
2022/02/19 08:01:58;;;;;;;1.50;0.20;;;;;;;3.16;79.98;100117.00;4954091;28;20031;-68
2022/02/19 08:04:24;;;;;;;7.07;0.60;;;;;;;3.34;80.24;100131.56;4944804;28;20031;-71
2022/02/19 08:06:49;;;;;;;5.32;0.43;;;;;;;3.48;80.69;100133.06;4954674;29;20049;-71
2022/02/19 08:09:15;;;;;;;3.88;0.40;;;;;;;3.51;80.41;100115.56;4947309;28;20027;-70
2022/02/19 08:11:41;;;;;;;2.15;0.50;;;;;;;3.67;79.75;100123.88;4946284;28;20031;-69
2022/02/19 08:14:06;;;;;;;1.25;0.68;;;;;;;3.77;80.02;100109.00;4938940;29;20094;-72
2022/02/19 08:16:34;;;;;;;3.00;0.63;;;;;;;3.96;79.82;100121.41;4931561;28;20027;-71
2022/02/19 08:19:08;;;;;;;0.95;0.63;;;;;;;4.05;80.05;100115.69;4945837;28;20558;-71
2022/02/19 08:21:34;;;;;;;2.70;0.82;;;;;;;4.06;79.55;100114.59;4951658;28;20051;-70
2022/02/19 08:24:11;;;;;;;1.80;0.50;;;;;;;4.07;79.12;100108.97;4947579;28;20464;-71
2022/02/19 08:26:46;;;;;;;;;;;;;;;;;;;;;
2022/02/19 08:29:14;;;;;;;3.50;0.82;;;;;;;4.23;78.82;100139.13;4952143;28;20087;-72
2022/02/19 08:31:44;;;;;;;3.33;1.40;;;;;;;4.27;79.70;100124.91;4967359;28;20027;-72
2022/02/19 08:34:10;;;;;;;2.53;0.50;;;;;;;4.43;79.64;100112.59;4962198;28;20035;-72
2022/02/19 08:36:36;;;;;;;3.20;0.57;;;;;;;4.94;79.50;100129.22;4942735;28;20105;-73
2022/02/19 08:39:09;;;;;;;4.68;0.70;;;;;;;5.29;78.95;100122.94;4949155;28;20050;-72
2022/02/19 08:41:35;;;;;;;3.92;0.80;;;;;;;5.84;78.01;100134.34;4949380;28;20030;-71
2022/02/19 08:44:08;;;;;;;10.43;0.90;;;;;;;6.33;76.54;100123.88;4952298;28;20035;-70
2022/02/19 08:46:34;;;;;;;0.85;0.32;;;;;;;6.59;74.15;100116.19;4955320;28;20109;-73
2022/02/19 08:49:01;;;;;;;5.45;0.70;;;;;;;6.44;72.72;100128.44;4951504;28;20071;-67
2022/02/19 08:51:26;;;;;;;3.17;1.08;;;;;;;6.26;73.71;100107.78;4929929;28;20019;-70
2022/02/19 08:53:52;;;;;;;8.82;0.90;;;;;;;6.38;74.93;100102.25;4949010;28;20046;-71
2022/02/19 08:56:17;;;;;;;4.72;1.15;;;;;;;6.89;74.88;100099.53;4937373;29;20023;-68
2022/02/19 08:58:45;;;;;;;8.27;0.95;;;;;;;7.25;73.20;100088.31;4945988;28;20937;-70
2022/02/19 09:01:10;;;;;;;6.72;0.93;;;;;;;7.57;72.02;100082.19;4945061;28;20035;-71
2022/02/19 09:03:35;;;;;;;6.00;1.00;;;;;;;7.89;72.00;100062.38;4933420;28;20034;-69
2022/02/19 09:06:01;;;;;;;4.00;1.23;;;;;;;8.18;71.45;100043.84;4948565;28;20045;-71
2022/02/19 09:08:27;;;;;;;4.20;0.90;;;;;;;8.50;70.48;100046.59;4945048;28;20027;-70
2022/02/19 09:10:52;;;;;;;3.08;0.68;;;;;;;8.62;70.41;100023.78;4942947;28;20039;-69
2022/02/19 09:13:17;;;;;;;3.30;0.70;;;;;;;8.58;69.85;100025.38;4940984;28;20050;-68
2022/02/19 09:15:43;;;;;;;2.95;0.50;;;;;;;8.39;70.26;100012.94;4945684;28;20023;-69
2022/02/19 09:18:08;;;;;;;2.53;0.77;;;;;;;8.26;71.02;100007.13;4947092;28;20027;-70
2022/02/19 09:20:35;;;;;;;11.32;1.38;;;;;;;7.98;70.61;100018.06;4948171;28;20340;-69
2022/02/19 09:23:01;;;;;;;11.63;1.65;;;;;;;7.63;70.68;100011.22;4946117;28;20070;-71
2022/02/19 09:25:26;;;;;;;3.53;1.35;;;;;;;7.48;71.47;99997.47;4944842;28;20024;-70
2022/02/19 09:27:52;;;;;;;9.40;1.42;;;;;;;7.57;72.17;100004.06;4945020;28;20043;-70
2022/02/19 09:30:18;;;;;;;11.68;1.38;;;;;;;8.28;72.64;100027.59;4948477;28;20106;-70
2022/02/19 09:32:43;;;;;;;6.90;1.00;;;;;;;9.32;70.56;100045.41;4942454;28;20745;-69
2022/02/19 09:35:12;;;;;;;9.30;1.35;;;;;;;9.78;68.20;100042.81;4947449;28;20115;-74
2022/02/19 09:37:38;;;;;;;7.63;2.17;;;;;;;10.02;66.50;100039.59;4948309;28;20035;-71
2022/02/19 09:40:04;;;;;;;2.47;0.85;;;;;;;9.90;65.06;100028.88;4937866;28;20070;-70
2022/02/19 09:42:30;;;;;;;10.32;1.67;;;;;;;9.40;63.59;100037.53;4941420;28;20039;-70
2022/02/19 09:44:57;;;;;;;6.72;1.40;;;;;;;9.06;65.33;100027.00;4947134;28;20032;-71
2022/02/19 09:47:30;;;;;;;5.55;1.50;;;;;;;8.74;65.73;100006.13;4943481;28;20142;-70
2022/02/19 09:49:57;;;;;;;18.13;1.35;;;;;;;8.47;66.49;99989.88;4945670;28;20023;-71
2022/02/19 09:52:26;;;;;;;8.88;1.45;;;;;;;8.35;67.54;99984.59;4942494;28;20067;-70
2022/02/19 09:54:57;;;;;;;10.32;1.05;;;;;;;8.20;67.74;99966.22;4939990;28;20059;-69
2022/02/19 09:57:22;;;;;;;11.63;1.60;;;;;;;8.07;67.82;99966.69;4947778;28;20026;-70
2022/02/19 09:59:48;;;;;;;2.97;0.90;;;;;;;7.99;68.47;99959.00;4936988;28;20031;-70
2022/02/19 10:02:13;;;;;;;8.65;1.00;;;;;;;7.95;68.69;99938.81;4942334;28;20043;-70
2022/02/19 10:04:44;;;;;;;15.35;1.92;;;;;;;7.89;68.97;99932.50;4948067;28;20045;-71
2022/02/19 10:07:18;;;;;;;10.95;1.25;;;;;;;7.75;68.17;99923.94;4945326;28;20049;-71
2022/02/19 10:09:47;;;;;;;8.68;2.45;;;;;;;7.67;68.70;99929.88;4944225;28;20031;-71
2022/02/19 10:12:15;;;;;;;12.82;1.92;;;;;;;7.59;68.55;99930.34;4942690;28;20078;-70
2022/02/19 10:14:44;;;;;;;11.02;1.48;;;;;;;7.51;69.12;99948.78;4948898;28;20130;-69
2022/02/19 10:17:24;;;;;;;18.27;1.65;;;;;;;7.48;68.93;99913.13;4945556;28;20106;-70
2022/02/19 10:20:00;;;;;;;7.15;1.20;;;;;;;7.42;68.93;99904.09;4943209;28;20506;-68
2022/02/19 10:22:28;;;;;;;18.13;1.88;;;;;;;7.42;68.12;99901.38;4940540;28;20045;-71
2022/02/19 10:25:21;;;;;;;8.52;1.70;;;;;;;7.42;68.75;99914.16;4947606;28;20070;-72
2022/02/19 10:28:08;;;;;;;7.22;1.90;;;;;;;7.39;67.81;99901.03;4942570;28;20043;-74
2022/02/19 10:31:00;;;;;;;8.25;1.55;;;;;;;7.34;68.67;99871.91;4942724;28;20433;-72
2022/02/19 10:33:44;;;;;;;11.85;2.92;;;;;;;7.39;67.83;99858.34;4943128;28;20230;-72
2022/02/19 10:36:25;;;;;;;24.38;2.88;;;;;;;7.29;67.95;99841.94;4953075;28;20507;-71
2022/02/19 10:38:56;;;;;;;12.75;2.03;;;;;;;7.30;67.08;99841.69;4929037;28;20042;-70
2022/02/19 10:41:42;;;;;;;8.95;1.05;;;;;;;7.26;68.15;99828.88;4946263;28;20031;-70
2022/02/19 10:44:27;;;;;;;;;;;;;;;7.29;68.58;99828.34;4933536;28;20031;-69
2022/02/19 10:46:58;;;;;;;9.80;1.40;;;;;;;7.22;69.76;99808.72;4947013;28;19974;-70
2022/02/19 10:49:25;;;;;;;13.30;2.10;;;;;;;7.15;71.08;99853.25;4948455;28;20043;-70
2022/02/19 10:51:55;;;;;;;28.77;2.63;;;;;;;6.96;71.78;99790.25;4945315;28;20028;-72
2022/02/19 10:54:25;;;;;;;8.15;1.38;;;;;;;6.87;75.20;99796.41;4953354;28;20465;-74
2022/02/19 10:56:50;;;;;;;3.85;1.60;;;;;;;6.57;77.62;99754.25;4952721;28;20019;-72
2022/02/19 10:59:19;;;;;;;21.88;2.80;;;;;;;6.44;80.58;99750.88;4937240;28;20486;-75
2022/02/19 11:02:06;;;;;;;15.50;2.80;;;;;;;6.22;83.67;99745.47;4947064;28;20034;-71
2022/02/19 11:04:38;;;;;;;23.63;4.18;;;;;;;6.05;84.34;99726.53;4921872;28;20118;-73
2022/02/19 11:07:13;;;;;;;12.45;2.35;;;;;;;5.93;86.96;99742.91;4946616;28;20023;-73
2022/02/19 11:09:40;;;;;;;20.20;2.78;;;;;;;5.82;87.60;99743.84;4951555;28;20042;-72
2022/02/19 11:12:06;;;;;;;11.40;1.88;;;;;;;5.66;88.83;99715.69;4951637;28;20041;-71
2022/02/19 11:14:46;;;;;;;14.30;1.63;;;;;;;5.58;90.54;99754.13;4935114;29;20050;-71
2022/02/19 11:17:24;;;;;;;11.48;1.80;;;;;;;5.52;90.80;99744.25;4909701;29;20031;-73
2022/02/19 11:20:08;;;;;;;19.05;2.10;;;;;;;5.46;91.79;99735.25;4937257;29;20027;-72
2022/02/19 11:23:00;;;;;;;11.65;1.55;;;;;;;5.48;92.37;99753.97;4952557;28;20051;-72
2022/02/19 11:25:25;;;;;;;32.03;3.10;;;;;;;5.49;93.93;99736.63;4946403;28;20058;-71
2022/02/19 11:28:25;;;;;;;29.10;2.25;;;;;;;5.49;94.02;99714.91;4957836;28;20115;-71
2022/02/19 11:31:05;;;;;;;;;;;;;;;;;;;;;
2022/02/19 11:33:42;;;;;;;;;;;;;;;;;;;;;
2022/02/19 11:36:14;;;;;;;23.52;1.80;;;;;;;5.56;96.98;99685.72;4953164;28;20429;-70
2022/02/19 11:39:10;;;;;;;22.25;2.38;;;;;;;5.66;97.01;99690.47;4957146;28;20038;-71
2022/02/19 11:41:42;;;;;;;;;;;;;;;5.70;97.20;99681.56;4926612;29;20373;-72
2022/02/19 11:44:19;;;;;;;12.30;1.55;;;;;;;5.73;96.65;99686.50;4944486;28;20390;-73
2022/02/19 11:46:49;;;;;;;14.50;2.35;;;;;;;5.77;96.94;99649.66;4938026;28;20055;-76
2022/02/19 11:49:26;;;;;;;24.67;2.28;;;;;;;5.76;96.59;99636.34;4937264;29;20031;-76
2022/02/19 11:52:34;;;;;;;;;;;;;;;;;;;;;
2022/02/19 11:55:29;;;;;;;26.85;4.00;;;;;;;5.89;97.40;99637.84;4920482;29;20035;-69
2022/02/19 11:58:07;;;;;;;13.77;2.67;;;;;;;5.87;97.47;99638.09;4920409;29;20171;-73
2022/02/19 12:01:01;;;;;;;16.90;2.38;;;;;;;5.94;97.30;99660.44;4945758;28;20775;-71
2022/02/19 12:03:33;;;;;;;32.97;3.45;;;;;;;5.98;97.85;99639.06;4926936;29;20126;-72